sensor_id;sensor_type;location;lat;lon;timestamp;temperature;humidity
20712;DHT22;10517;50.742;4.224;2023-03-11T00:00:14;1.10;99.90
20712;DHT22;10517;50.742;4.224;2023-03-11T00:02:47;1.00;99.90
20712;DHT22;10517;50.742;4.224;2023-03-11T00:05:23;1.00;99.90
20712;DHT22;10517;50.742;4.224;2023-03-11T00:07:49;0.90;99.90
20712;DHT22;10517;50.742;4.224;2023-03-11T00:10:38;0.90;99.90
20712;DHT22;10517;50.742;4.224;2023-03-11T00:13:03;0.80;99.90
20712;DHT22;10517;50.742;4.224;2023-03-11T00:15:30;1.00;99.90
20712;DHT22;10517;50.742;4.224;2023-03-11T00:17:56;0.90;99.90
20712;DHT22;10517;50.742;4.224;2023-03-11T00:20:36;0.90;99.90
20712;DHT22;10517;50.742;4.224;2023-03-11T00:23:05;1.00;99.90
20712;DHT22;10517;50.742;4.224;2023-03-11T00:25:32;1.10;99.90
20712;DHT22;10517;50.742;4.224;2023-03-11T00:27:58;1.10;99.90
20712;DHT22;10517;50.742;4.224;2023-03-11T00:30:24;1.00;99.90
20712;DHT22;10517;50.742;4.224;2023-03-11T00:32:52;1.00;99.90
20712;DHT22;10517;50.742;4.224;2023-03-11T00:35:21;0.90;99.90
20712;DHT22;10517;50.742;4.224;2023-03-11T00:37:47;0.90;99.90
20712;DHT22;10517;50.742;4.224;2023-03-11T00:40:16;1.10;99.90
20712;DHT22;10517;50.742;4.224;2023-03-11T00:42:42;1.10;99.90
20712;DHT22;10517;50.742;4.224;2023-03-11T00:45:08;1.10;99.90
20712;DHT22;10517;50.742;4.224;2023-03-11T00:47:34;1.00;99.90
20712;DHT22;10517;50.742;4.224;2023-03-11T00:49:59;0.90;99.90
20712;DHT22;10517;50.742;4.224;2023-03-11T00:52:25;1.00;99.90
20712;DHT22;10517;50.742;4.224;2023-03-11T00:54:51;1.00;99.90
20712;DHT22;10517;50.742;4.224;2023-03-11T00:57:16;1.00;99.90
20712;DHT22;10517;50.742;4.224;2023-03-11T00:59:42;1.00;99.90
20712;DHT22;10517;50.742;4.224;2023-03-11T01:02:07;1.00;99.90
20712;DHT22;10517;50.742;4.224;2023-03-11T01:04:33;1.10;99.90
20712;DHT22;10517;50.742;4.224;2023-03-11T01:06:58;1.20;99.90
20712;DHT22;10517;50.742;4.224;2023-03-11T01:09:24;1.10;99.90
20712;DHT22;10517;50.742;4.224;2023-03-11T01:11:50;1.20;99.90
20712;DHT22;10517;50.742;4.224;2023-03-11T01:14:16;1.20;99.90
20712;DHT22;10517;50.742;4.224;2023-03-11T01:16:42;1.00;99.90
20712;DHT22;10517;50.742;4.224;2023-03-11T01:19:07;0.90;99.90
20712;DHT22;10517;50.742;4.224;2023-03-11T01:21:33;0.80;99.90
20712;DHT22;10517;50.742;4.224;2023-03-11T01:23:58;0.70;99.90
20712;DHT22;10517;50.742;4.224;2023-03-11T01:26:24;0.60;99.90
20712;DHT22;10517;50.742;4.224;2023-03-11T01:28:50;0.60;99.90
20712;DHT22;10517;50.742;4.224;2023-03-11T01:31:16;0.60;99.90
20712;DHT22;10517;50.742;4.224;2023-03-11T01:33:41;0.50;99.90
20712;DHT22;10517;50.742;4.224;2023-03-11T01:36:07;0.50;99.90
20712;DHT22;10517;50.742;4.224;2023-03-11T01:38:33;0.50;99.90
20712;DHT22;10517;50.742;4.224;2023-03-11T01:40:58;0.60;99.90
20712;DHT22;10517;50.742;4.224;2023-03-11T01:48:39;0.70;99.90
20712;DHT22;10517;50.742;4.224;2023-03-11T01:51:06;0.70;99.90
20712;DHT22;10517;50.742;4.224;2023-03-11T01:53:32;0.70;99.90
20712;DHT22;10517;50.742;4.224;2023-03-11T01:56:00;0.50;99.90
20712;DHT22;10517;50.742;4.224;2023-03-11T01:58:33;0.60;99.90
20712;DHT22;10517;50.742;4.224;2023-03-11T02:01:00;0.70;99.90
20712;DHT22;10517;50.742;4.224;2023-03-11T02:03:30;0.70;99.90
20712;DHT22;10517;50.742;4.224;2023-03-11T02:05:57;0.70;99.90
20712;DHT22;10517;50.742;4.224;2023-03-11T02:08:24;0.70;99.90
20712;DHT22;10517;50.742;4.224;2023-03-11T02:10:51;0.80;99.90
20712;DHT22;10517;50.742;4.224;2023-03-11T02:13:17;0.70;99.90
20712;DHT22;10517;50.742;4.224;2023-03-11T02:15:43;0.60;99.90
20712;DHT22;10517;50.742;4.224;2023-03-11T02:18:11;0.50;99.90
20712;DHT22;10517;50.742;4.224;2023-03-11T02:23:12;0.60;99.90
20712;DHT22;10517;50.742;4.224;2023-03-11T02:28:13;0.50;99.90
20712;DHT22;10517;50.742;4.224;2023-03-11T02:30:41;0.50;99.90
20712;DHT22;10517;50.742;4.224;2023-03-11T02:33:08;0.40;99.90
20712;DHT22;10517;50.742;4.224;2023-03-11T02:35:34;0.40;99.90
20712;DHT22;10517;50.742;4.224;2023-03-11T02:37:59;0.50;99.90
20712;DHT22;10517;50.742;4.224;2023-03-11T02:40:43;0.40;99.90
20712;DHT22;10517;50.742;4.224;2023-03-11T02:43:13;0.40;99.90
20712;DHT22;10517;50.742;4.224;2023-03-11T02:45:40;0.50;99.90
20712;DHT22;10517;50.742;4.224;2023-03-11T02:48:08;0.50;99.90
20712;DHT22;10517;50.742;4.224;2023-03-11T02:50:34;0.50;99.90
20712;DHT22;10517;50.742;4.224;2023-03-11T02:53:02;0.50;99.90
20712;DHT22;10517;50.742;4.224;2023-03-11T02:55:28;0.50;99.90
20712;DHT22;10517;50.742;4.224;2023-03-11T02:57:54;0.40;99.90
20712;DHT22;10517;50.742;4.224;2023-03-11T03:00:20;0.50;99.90
20712;DHT22;10517;50.742;4.224;2023-03-11T03:02:45;0.60;99.90
20712;DHT22;10517;50.742;4.224;2023-03-11T03:05:12;0.60;99.90
20712;DHT22;10517;50.742;4.224;2023-03-11T03:07:37;0.60;99.90
20712;DHT22;10517;50.742;4.224;2023-03-11T03:10:04;0.70;99.90
20712;DHT22;10517;50.742;4.224;2023-03-11T03:12:30;0.70;99.90
20712;DHT22;10517;50.742;4.224;2023-03-11T03:14:55;0.90;99.90
20712;DHT22;10517;50.742;4.224;2023-03-11T03:17:23;1.10;99.90
20712;DHT22;10517;50.742;4.224;2023-03-11T03:19:48;0.90;99.90
20712;DHT22;10517;50.742;4.224;2023-03-11T03:22:14;0.90;99.90
20712;DHT22;10517;50.742;4.224;2023-03-11T03:24:39;0.90;99.90
20712;DHT22;10517;50.742;4.224;2023-03-11T03:27:05;1.10;99.90
20712;DHT22;10517;50.742;4.224;2023-03-11T03:29:31;1.10;99.90
20712;DHT22;10517;50.742;4.224;2023-03-11T03:31:56;1.00;99.90
20712;DHT22;10517;50.742;4.224;2023-03-11T03:34:22;1.00;99.90
20712;DHT22;10517;50.742;4.224;2023-03-11T03:36:48;1.20;99.90
20712;DHT22;10517;50.742;4.224;2023-03-11T03:39:13;1.30;99.90
20712;DHT22;10517;50.742;4.224;2023-03-11T03:41:39;1.30;99.90
20712;DHT22;10517;50.742;4.224;2023-03-11T03:44:04;1.20;99.90
20712;DHT22;10517;50.742;4.224;2023-03-11T03:46:30;1.30;99.90
20712;DHT22;10517;50.742;4.224;2023-03-11T03:48:56;1.20;99.90
20712;DHT22;10517;50.742;4.224;2023-03-11T03:51:21;1.20;99.90
20712;DHT22;10517;50.742;4.224;2023-03-11T03:53:47;1.20;99.90
20712;DHT22;10517;50.742;4.224;2023-03-11T03:56:15;1.30;99.90
20712;DHT22;10517;50.742;4.224;2023-03-11T03:58:41;1.30;99.90
20712;DHT22;10517;50.742;4.224;2023-03-11T04:01:07;1.40;99.90
20712;DHT22;10517;50.742;4.224;2023-03-11T04:03:34;1.40;99.90
20712;DHT22;10517;50.742;4.224;2023-03-11T04:08:35;1.30;99.90
20712;DHT22;10517;50.742;4.224;2023-03-11T04:11:00;1.30;99.90
20712;DHT22;10517;50.742;4.224;2023-03-11T04:13:26;1.20;99.90
20712;DHT22;10517;50.742;4.224;2023-03-11T04:15:52;1.20;99.90
20712;DHT22;10517;50.742;4.224;2023-03-11T04:18:17;1.10;99.90
20712;DHT22;10517;50.742;4.224;2023-03-11T04:20:43;1.00;99.90
20712;DHT22;10517;50.742;4.224;2023-03-11T04:23:08;0.90;99.90
20712;DHT22;10517;50.742;4.224;2023-03-11T04:25:34;0.90;99.90
20712;DHT22;10517;50.742;4.224;2023-03-11T04:28:00;0.80;99.90
20712;DHT22;10517;50.742;4.224;2023-03-11T04:30:25;0.70;99.90
20712;DHT22;10517;50.742;4.224;2023-03-11T04:32:51;0.70;99.90
20712;DHT22;10517;50.742;4.224;2023-03-11T04:35:16;0.70;99.90
20712;DHT22;10517;50.742;4.224;2023-03-11T04:37:42;0.70;99.90
20712;DHT22;10517;50.742;4.224;2023-03-11T04:40:08;0.50;99.90
20712;DHT22;10517;50.742;4.224;2023-03-11T04:42:35;0.50;99.90
20712;DHT22;10517;50.742;4.224;2023-03-11T04:45:01;0.40;99.90
20712;DHT22;10517;50.742;4.224;2023-03-11T04:47:27;0.40;99.90
20712;DHT22;10517;50.742;4.224;2023-03-11T04:49:53;0.30;99.90
20712;DHT22;10517;50.742;4.224;2023-03-11T04:52:20;0.30;99.90
20712;DHT22;10517;50.742;4.224;2023-03-11T04:54:46;0.30;99.90
20712;DHT22;10517;50.742;4.224;2023-03-11T04:57:12;0.20;99.90
20712;DHT22;10517;50.742;4.224;2023-03-11T04:59:37;0.20;99.90
20712;DHT22;10517;50.742;4.224;2023-03-11T05:02:03;0.20;99.90
20712;DHT22;10517;50.742;4.224;2023-03-11T05:04:29;0.30;99.90
20712;DHT22;10517;50.742;4.224;2023-03-11T05:06:54;0.30;99.90
20712;DHT22;10517;50.742;4.224;2023-03-11T05:09:20;0.30;99.90
20712;DHT22;10517;50.742;4.224;2023-03-11T05:11:45;0.20;99.90
20712;DHT22;10517;50.742;4.224;2023-03-11T05:14:11;0.20;99.90
20712;DHT22;10517;50.742;4.224;2023-03-11T05:16:37;0.20;99.90
20712;DHT22;10517;50.742;4.224;2023-03-11T05:19:03;0.10;99.90
20712;DHT22;10517;50.742;4.224;2023-03-11T05:21:48;0.10;99.90
20712;DHT22;10517;50.742;4.224;2023-03-11T05:24:14;0.00;99.90
20712;DHT22;10517;50.742;4.224;2023-03-11T05:26:39;0.00;99.90
20712;DHT22;10517;50.742;4.224;2023-03-11T05:29:05;-0.10;99.90
20712;DHT22;10517;50.742;4.224;2023-03-11T05:31:31;0.00;99.90
20712;DHT22;10517;50.742;4.224;2023-03-11T05:33:57;-0.10;99.90
20712;DHT22;10517;50.742;4.224;2023-03-11T05:36:22;-0.10;99.90
20712;DHT22;10517;50.742;4.224;2023-03-11T05:38:48;-0.10;99.90
20712;DHT22;10517;50.742;4.224;2023-03-11T05:41:13;-0.10;99.90
20712;DHT22;10517;50.742;4.224;2023-03-11T05:43:39;-0.10;99.90
20712;DHT22;10517;50.742;4.224;2023-03-11T05:46:05;-0.10;99.90
20712;DHT22;10517;50.742;4.224;2023-03-11T05:48:30;-0.10;99.90
20712;DHT22;10517;50.742;4.224;2023-03-11T05:50:56;-0.20;99.90
20712;DHT22;10517;50.742;4.224;2023-03-11T05:53:21;0.00;99.90
20712;DHT22;10517;50.742;4.224;2023-03-11T05:55:55;-0.20;99.90
20712;DHT22;10517;50.742;4.224;2023-03-11T05:58:21;-0.20;99.90
20712;DHT22;10517;50.742;4.224;2023-03-11T06:00:47;-0.20;99.90
20712;DHT22;10517;50.742;4.224;2023-03-11T06:03:12;-0.20;99.90
20712;DHT22;10517;50.742;4.224;2023-03-11T06:05:44;-0.20;99.90
20712;DHT22;10517;50.742;4.224;2023-03-11T06:08:09;-0.20;99.90
20712;DHT22;10517;50.742;4.224;2023-03-11T06:10:35;-0.20;99.90
20712;DHT22;10517;50.742;4.224;2023-03-11T06:13:01;-0.30;99.90
20712;DHT22;10517;50.742;4.224;2023-03-11T06:15:26;-0.30;99.90
20712;DHT22;10517;50.742;4.224;2023-03-11T06:17:52;-0.30;99.90
20712;DHT22;10517;50.742;4.224;2023-03-11T06:20:17;-0.20;99.90
20712;DHT22;10517;50.742;4.224;2023-03-11T06:22:43;-0.30;99.90
20712;DHT22;10517;50.742;4.224;2023-03-11T06:25:09;-0.30;99.90
20712;DHT22;10517;50.742;4.224;2023-03-11T06:27:34;-0.30;99.90
20712;DHT22;10517;50.742;4.224;2023-03-11T06:30:00;-0.30;99.90
20712;DHT22;10517;50.742;4.224;2023-03-11T06:32:26;-0.20;99.90
20712;DHT22;10517;50.742;4.224;2023-03-11T06:34:52;-0.20;99.90
20712;DHT22;10517;50.742;4.224;2023-03-11T06:37:18;-0.20;99.90
20712;DHT22;10517;50.742;4.224;2023-03-11T06:39:45;-0.10;99.90
20712;DHT22;10517;50.742;4.224;2023-03-11T06:42:10;-0.10;99.90
20712;DHT22;10517;50.742;4.224;2023-03-11T06:44:36;-0.10;99.90
20712;DHT22;10517;50.742;4.224;2023-03-11T06:47:02;0.00;99.90
20712;DHT22;10517;50.742;4.224;2023-03-11T06:49:28;0.00;99.90
20712;DHT22;10517;50.742;4.224;2023-03-11T06:51:53;0.00;99.90
20712;DHT22;10517;50.742;4.224;2023-03-11T06:54:19;0.10;99.90
20712;DHT22;10517;50.742;4.224;2023-03-11T06:56:44;0.20;99.90
20712;DHT22;10517;50.742;4.224;2023-03-11T06:59:10;0.20;99.90
20712;DHT22;10517;50.742;4.224;2023-03-11T07:01:35;0.20;99.90
20712;DHT22;10517;50.742;4.224;2023-03-11T07:04:01;0.30;99.90
20712;DHT22;10517;50.742;4.224;2023-03-11T07:06:27;0.30;99.90
20712;DHT22;10517;50.742;4.224;2023-03-11T07:08:53;0.40;99.90
20712;DHT22;10517;50.742;4.224;2023-03-11T07:11:22;0.40;99.90
20712;DHT22;10517;50.742;4.224;2023-03-11T07:13:47;0.60;99.90
20712;DHT22;10517;50.742;4.224;2023-03-11T07:16:17;0.70;99.90
20712;DHT22;10517;50.742;4.224;2023-03-11T07:18:43;0.70;99.90
20712;DHT22;10517;50.742;4.224;2023-03-11T07:21:15;0.80;99.90
20712;DHT22;10517;50.742;4.224;2023-03-11T07:23:41;0.80;99.90
20712;DHT22;10517;50.742;4.224;2023-03-11T07:26:09;0.90;99.90
20712;DHT22;10517;50.742;4.224;2023-03-11T07:28:35;1.00;99.90
20712;DHT22;10517;50.742;4.224;2023-03-11T07:31:09;1.10;99.90
20712;DHT22;10517;50.742;4.224;2023-03-11T07:33:35;1.20;99.90
20712;DHT22;10517;50.742;4.224;2023-03-11T07:36:05;1.40;99.90
20712;DHT22;10517;50.742;4.224;2023-03-11T07:38:31;1.40;99.90
20712;DHT22;10517;50.742;4.224;2023-03-11T07:40:57;1.60;99.90
20712;DHT22;10517;50.742;4.224;2023-03-11T07:43:23;1.70;99.90
20712;DHT22;10517;50.742;4.224;2023-03-11T07:45:48;1.80;99.90
20712;DHT22;10517;50.742;4.224;2023-03-11T07:48:16;1.80;99.90
20712;DHT22;10517;50.742;4.224;2023-03-11T07:50:41;1.80;99.90
20712;DHT22;10517;50.742;4.224;2023-03-11T07:53:07;1.90;99.90
20712;DHT22;10517;50.742;4.224;2023-03-11T07:55:33;2.00;99.90
20712;DHT22;10517;50.742;4.224;2023-03-11T07:57:58;2.10;99.90
20712;DHT22;10517;50.742;4.224;2023-03-11T08:00:24;2.10;99.90
20712;DHT22;10517;50.742;4.224;2023-03-11T08:02:50;2.10;99.90
20712;DHT22;10517;50.742;4.224;2023-03-11T08:05:16;2.20;99.90
20712;DHT22;10517;50.742;4.224;2023-03-11T08:07:45;2.20;99.90
20712;DHT22;10517;50.742;4.224;2023-03-11T08:10:11;2.30;99.90
20712;DHT22;10517;50.742;4.224;2023-03-11T08:12:37;2.40;99.90
20712;DHT22;10517;50.742;4.224;2023-03-11T08:15:03;2.70;99.90
20712;DHT22;10517;50.742;4.224;2023-03-11T08:17:28;2.70;99.90
20712;DHT22;10517;50.742;4.224;2023-03-11T08:19:54;2.80;99.90
20712;DHT22;10517;50.742;4.224;2023-03-11T08:22:20;3.00;99.90
20712;DHT22;10517;50.742;4.224;2023-03-11T08:24:49;3.00;99.90
20712;DHT22;10517;50.742;4.224;2023-03-11T08:27:15;3.10;99.90
20712;DHT22;10517;50.742;4.224;2023-03-11T08:29:40;3.20;99.90
20712;DHT22;10517;50.742;4.224;2023-03-11T08:32:06;3.20;99.90
20712;DHT22;10517;50.742;4.224;2023-03-11T08:34:32;3.30;99.90
20712;DHT22;10517;50.742;4.224;2023-03-11T08:36:59;3.40;99.90
20712;DHT22;10517;50.742;4.224;2023-03-11T08:39:25;3.50;99.90
20712;DHT22;10517;50.742;4.224;2023-03-11T08:41:50;3.70;99.90
20712;DHT22;10517;50.742;4.224;2023-03-11T08:44:16;3.80;99.90
20712;DHT22;10517;50.742;4.224;2023-03-11T08:46:41;3.70;99.90
20712;DHT22;10517;50.742;4.224;2023-03-11T08:49:07;3.60;99.90
20712;DHT22;10517;50.742;4.224;2023-03-11T08:51:33;3.60;99.90
20712;DHT22;10517;50.742;4.224;2023-03-11T08:54:00;3.70;99.90
20712;DHT22;10517;50.742;4.224;2023-03-11T08:56:26;3.60;99.90
20712;DHT22;10517;50.742;4.224;2023-03-11T08:58:51;3.70;99.90
20712;DHT22;10517;50.742;4.224;2023-03-11T09:01:18;4.00;99.90
20712;DHT22;10517;50.742;4.224;2023-03-11T09:03:45;4.20;99.90
20712;DHT22;10517;50.742;4.224;2023-03-11T09:06:13;4.30;99.90
20712;DHT22;10517;50.742;4.224;2023-03-11T09:08:40;4.50;99.90
20712;DHT22;10517;50.742;4.224;2023-03-11T09:11:05;4.50;99.90
20712;DHT22;10517;50.742;4.224;2023-03-11T09:13:31;4.70;99.90
20712;DHT22;10517;50.742;4.224;2023-03-11T09:15:57;4.90;99.90
20712;DHT22;10517;50.742;4.224;2023-03-11T09:18:23;5.10;99.90
20712;DHT22;10517;50.742;4.224;2023-03-11T09:20:48;5.30;99.90
20712;DHT22;10517;50.742;4.224;2023-03-11T09:23:15;5.30;99.90
20712;DHT22;10517;50.742;4.224;2023-03-11T09:25:41;5.50;99.90
20712;DHT22;10517;50.742;4.224;2023-03-11T09:28:07;5.50;99.90
20712;DHT22;10517;50.742;4.224;2023-03-11T09:30:33;5.40;99.90
20712;DHT22;10517;50.742;4.224;2023-03-11T09:32:58;5.70;99.90
20712;DHT22;10517;50.742;4.224;2023-03-11T09:35:24;5.70;99.90
20712;DHT22;10517;50.742;4.224;2023-03-11T09:37:50;5.40;99.90
20712;DHT22;10517;50.742;4.224;2023-03-11T09:40:19;5.50;99.90
20712;DHT22;10517;50.742;4.224;2023-03-11T09:43:05;5.60;99.90
20712;DHT22;10517;50.742;4.224;2023-03-11T09:45:39;5.40;99.90
20712;DHT22;10517;50.742;4.224;2023-03-11T09:51:02;5.60;99.90
20712;DHT22;10517;50.742;4.224;2023-03-11T09:53:42;5.60;99.90
20712;DHT22;10517;50.742;4.224;2023-03-11T09:56:12;6.00;99.90
20712;DHT22;10517;50.742;4.224;2023-03-11T10:01:14;6.10;99.90
20712;DHT22;10517;50.742;4.224;2023-03-11T10:03:42;6.50;99.90
20712;DHT22;10517;50.742;4.224;2023-03-11T10:06:50;6.50;99.90
20712;DHT22;10517;50.742;4.224;2023-03-11T10:11:49;5.90;99.90
20712;DHT22;10517;50.742;4.224;2023-03-11T10:17:21;6.00;99.90
20712;DHT22;10517;50.742;4.224;2023-03-11T10:20:10;6.30;99.90
20712;DHT22;10517;50.742;4.224;2023-03-11T10:25:12;6.90;99.90
20712;DHT22;10517;50.742;4.224;2023-03-11T10:35:17;8.20;99.90
20712;DHT22;10517;50.742;4.224;2023-03-11T10:38:13;8.10;99.90
20712;DHT22;10517;50.742;4.224;2023-03-11T10:40:45;7.70;99.90
20712;DHT22;10517;50.742;4.224;2023-03-11T10:43:15;7.90;99.90
20712;DHT22;10517;50.742;4.224;2023-03-11T10:45:42;8.00;99.90
20712;DHT22;10517;50.742;4.224;2023-03-11T10:48:16;8.20;99.90
20712;DHT22;10517;50.742;4.224;2023-03-11T10:51:22;8.10;99.90
20712;DHT22;10517;50.742;4.224;2023-03-11T10:53:53;8.20;99.90
20712;DHT22;10517;50.742;4.224;2023-03-11T10:58:52;8.50;99.90
20712;DHT22;10517;50.742;4.224;2023-03-11T11:01:19;8.80;99.90
20712;DHT22;10517;50.742;4.224;2023-03-11T11:03:54;8.90;99.90
20712;DHT22;10517;50.742;4.224;2023-03-11T11:06:31;9.10;99.90
20712;DHT22;10517;50.742;4.224;2023-03-11T11:09:22;9.20;99.90
20712;DHT22;10517;50.742;4.224;2023-03-11T11:14:47;8.70;99.90
20712;DHT22;10517;50.742;4.224;2023-03-11T11:17:22;8.70;99.90
20712;DHT22;10517;50.742;4.224;2023-03-11T11:19:49;8.50;99.90
20712;DHT22;10517;50.742;4.224;2023-03-11T11:22:17;7.80;99.90
20712;DHT22;10517;50.742;4.224;2023-03-11T11:24:45;7.50;99.90
20712;DHT22;10517;50.742;4.224;2023-03-11T11:27:25;7.10;99.90
20712;DHT22;10517;50.742;4.224;2023-03-11T11:32:33;7.90;99.90
20712;DHT22;10517;50.742;4.224;2023-03-11T11:35:04;8.10;99.90
20712;DHT22;10517;50.742;4.224;2023-03-11T11:37:33;8.20;99.90
20712;DHT22;10517;50.742;4.224;2023-03-11T11:42:27;7.80;99.90
20712;DHT22;10517;50.742;4.224;2023-03-11T11:44:59;7.80;99.90
20712;DHT22;10517;50.742;4.224;2023-03-11T11:47:32;8.10;99.90
20712;DHT22;10517;50.742;4.224;2023-03-11T11:50:02;8.70;99.90
20712;DHT22;10517;50.742;4.224;2023-03-11T11:52:39;9.40;99.90
20712;DHT22;10517;50.742;4.224;2023-03-11T11:55:17;9.80;99.90
20712;DHT22;10517;50.742;4.224;2023-03-11T11:57:45;10.00;99.90
20712;DHT22;10517;50.742;4.224;2023-03-11T12:05:59;10.60;99.90
20712;DHT22;10517;50.742;4.224;2023-03-11T12:08:46;10.70;99.90
20712;DHT22;10517;50.742;4.224;2023-03-11T12:11:43;10.60;99.90
20712;DHT22;10517;50.742;4.224;2023-03-11T12:14:19;10.20;99.90
20712;DHT22;10517;50.742;4.224;2023-03-11T12:16:57;10.00;99.90
20712;DHT22;10517;50.742;4.224;2023-03-11T12:19:43;10.30;99.90
20712;DHT22;10517;50.742;4.224;2023-03-11T12:30:49;9.30;99.90
20712;DHT22;10517;50.742;4.224;2023-03-11T12:33:26;9.40;99.90
20712;DHT22;10517;50.742;4.224;2023-03-11T12:35:56;9.70;99.90
20712;DHT22;10517;50.742;4.224;2023-03-11T12:38:37;9.70;99.90
20712;DHT22;10517;50.742;4.224;2023-03-11T12:46:06;9.50;99.90
20712;DHT22;10517;50.742;4.224;2023-03-11T12:48:36;9.80;99.90
20712;DHT22;10517;50.742;4.224;2023-03-11T12:51:06;9.50;99.90
20712;DHT22;10517;50.742;4.224;2023-03-11T12:53:55;9.90;99.90
20712;DHT22;10517;50.742;4.224;2023-03-11T12:56:30;10.20;99.90
20712;DHT22;10517;50.742;4.224;2023-03-11T12:59:18;10.50;99.90
20712;DHT22;10517;50.742;4.224;2023-03-11T13:02:01;10.50;99.90
20712;DHT22;10517;50.742;4.224;2023-03-11T13:18:13;10.70;99.90
20712;DHT22;10517;50.742;4.224;2023-03-11T13:28:26;10.70;99.90
20712;DHT22;10517;50.742;4.224;2023-03-11T13:33:59;13.50;99.90
20712;DHT22;10517;50.742;4.224;2023-03-11T13:39:28;15.40;99.90
20712;DHT22;10517;50.742;4.224;2023-03-11T13:41:55;15.80;99.90
20712;DHT22;10517;50.742;4.224;2023-03-11T13:44:30;15.80;99.90
20712;DHT22;10517;50.742;4.224;2023-03-11T13:47:06;16.20;99.90
20712;DHT22;10517;50.742;4.224;2023-03-11T13:50:08;16.50;99.90
20712;DHT22;10517;50.742;4.224;2023-03-11T13:52:37;16.80;99.90
20712;DHT22;10517;50.742;4.224;2023-03-11T13:55:13;17.30;99.90
20712;DHT22;10517;50.742;4.224;2023-03-11T13:57:49;17.00;99.90
20712;DHT22;10517;50.742;4.224;2023-03-11T14:00:17;17.80;99.90
20712;DHT22;10517;50.742;4.224;2023-03-11T14:02:56;17.10;99.90
20712;DHT22;10517;50.742;4.224;2023-03-11T14:05:35;15.10;99.90
20712;DHT22;10517;50.742;4.224;2023-03-11T14:08:31;15.30;99.90
20712;DHT22;10517;50.742;4.224;2023-03-11T14:13:42;15.90;99.90
20712;DHT22;10517;50.742;4.224;2023-03-11T14:16:14;16.20;99.90
20712;DHT22;10517;50.742;4.224;2023-03-11T14:18:45;15.90;99.90
20712;DHT22;10517;50.742;4.224;2023-03-11T14:21:17;15.30;99.90
20712;DHT22;10517;50.742;4.224;2023-03-11T14:23:46;14.40;99.90
20712;DHT22;10517;50.742;4.224;2023-03-11T14:26:18;13.40;99.90
20712;DHT22;10517;50.742;4.224;2023-03-11T14:28:56;14.30;99.90
20712;DHT22;10517;50.742;4.224;2023-03-11T14:31:34;14.90;99.90
20712;DHT22;10517;50.742;4.224;2023-03-11T14:36:43;16.00;99.90
20712;DHT22;10517;50.742;4.224;2023-03-11T14:39:26;17.20;99.90
20712;DHT22;10517;50.742;4.224;2023-03-11T14:45:18;18.70;99.90
20712;DHT22;10517;50.742;4.224;2023-03-11T14:50:21;19.20;99.90
20712;DHT22;10517;50.742;4.224;2023-03-11T14:53:01;18.80;99.90
20712;DHT22;10517;50.742;4.224;2023-03-11T14:55:34;18.10;99.90
20712;DHT22;10517;50.742;4.224;2023-03-11T15:01:13;17.00;99.90
20712;DHT22;10517;50.742;4.224;2023-03-11T15:03:49;15.90;99.90
20712;DHT22;10517;50.742;4.224;2023-03-11T15:06:19;16.20;99.90
20712;DHT22;10517;50.742;4.224;2023-03-11T15:08:50;16.90;99.90
20712;DHT22;10517;50.742;4.224;2023-03-11T15:11:19;18.50;99.90
20712;DHT22;10517;50.742;4.224;2023-03-11T15:13:47;20.30;98.60
20712;DHT22;10517;50.742;4.224;2023-03-11T15:16:33;19.70;99.20
20712;DHT22;10517;50.742;4.224;2023-03-11T15:21:48;20.10;97.60
20712;DHT22;10517;50.742;4.224;2023-03-11T15:24:20;21.50;96.60
20712;DHT22;10517;50.742;4.224;2023-03-11T15:27:05;20.80;94.90
20712;DHT22;10517;50.742;4.224;2023-03-11T15:29:33;20.10;96.10
20712;DHT22;10517;50.742;4.224;2023-03-11T15:31:59;20.20;95.50
20712;DHT22;10517;50.742;4.224;2023-03-11T15:34:30;19.70;95.10
20712;DHT22;10517;50.742;4.224;2023-03-11T15:39:40;17.90;96.10
20712;DHT22;10517;50.742;4.224;2023-03-11T15:42:18;17.00;96.90
20712;DHT22;10517;50.742;4.224;2023-03-11T15:45:09;16.10;98.60
20712;DHT22;10517;50.742;4.224;2023-03-11T15:47:36;14.70;99.50
20712;DHT22;10517;50.742;4.224;2023-03-11T15:50:25;13.70;99.90
20712;DHT22;10517;50.742;4.224;2023-03-11T15:52:53;13.40;99.90
20712;DHT22;10517;50.742;4.224;2023-03-11T15:55:20;12.60;99.90
20712;DHT22;10517;50.742;4.224;2023-03-11T15:57:49;11.90;99.90
20712;DHT22;10517;50.742;4.224;2023-03-11T16:00:19;11.20;99.90
20712;DHT22;10517;50.742;4.224;2023-03-11T16:02:47;11.10;99.90
20712;DHT22;10517;50.742;4.224;2023-03-11T16:05:21;10.70;99.90
20712;DHT22;10517;50.742;4.224;2023-03-11T16:07:48;10.70;99.90
20712;DHT22;10517;50.742;4.224;2023-03-11T16:10:15;10.80;99.90
20712;DHT22;10517;50.742;4.224;2023-03-11T16:12:41;10.70;99.90
20712;DHT22;10517;50.742;4.224;2023-03-11T16:15:32;10.70;99.90
20712;DHT22;10517;50.742;4.224;2023-03-11T16:18:00;10.70;99.90
20712;DHT22;10517;50.742;4.224;2023-03-11T16:20:33;10.70;99.90
20712;DHT22;10517;50.742;4.224;2023-03-11T16:23:01;10.70;99.90
20712;DHT22;10517;50.742;4.224;2023-03-11T16:25:33;10.80;99.90
20712;DHT22;10517;50.742;4.224;2023-03-11T16:28:01;10.90;99.90
20712;DHT22;10517;50.742;4.224;2023-03-11T16:30:29;10.80;99.90
20712;DHT22;10517;50.742;4.224;2023-03-11T16:32:55;10.70;99.90
20712;DHT22;10517;50.742;4.224;2023-03-11T16:35:20;10.40;99.90
20712;DHT22;10517;50.742;4.224;2023-03-11T16:37:46;10.60;99.90
20712;DHT22;10517;50.742;4.224;2023-03-11T16:40:15;10.40;99.90
20712;DHT22;10517;50.742;4.224;2023-03-11T16:42:42;10.30;99.90
20712;DHT22;10517;50.742;4.224;2023-03-11T16:45:09;10.20;99.90
20712;DHT22;10517;50.742;4.224;2023-03-11T16:47:35;10.10;99.90
20712;DHT22;10517;50.742;4.224;2023-03-11T16:50:00;10.00;99.90
20712;DHT22;10517;50.742;4.224;2023-03-11T16:52:26;10.00;99.90
20712;DHT22;10517;50.742;4.224;2023-03-11T16:54:51;10.10;99.90
20712;DHT22;10517;50.742;4.224;2023-03-11T16:57:17;10.10;99.90
20712;DHT22;10517;50.742;4.224;2023-03-11T16:59:43;10.00;99.90
20712;DHT22;10517;50.742;4.224;2023-03-11T17:02:10;10.00;99.90
20712;DHT22;10517;50.742;4.224;2023-03-11T17:04:36;9.90;99.90
20712;DHT22;10517;50.742;4.224;2023-03-11T17:07:04;9.80;99.90
20712;DHT22;10517;50.742;4.224;2023-03-11T17:09:30;9.70;99.90
20712;DHT22;10517;50.742;4.224;2023-03-11T17:11:56;9.60;99.90
20712;DHT22;10517;50.742;4.224;2023-03-11T17:14:21;9.30;99.90
20712;DHT22;10517;50.742;4.224;2023-03-11T17:16:48;9.20;99.90
20712;DHT22;10517;50.742;4.224;2023-03-11T17:19:14;9.00;99.90
20712;DHT22;10517;50.742;4.224;2023-03-11T17:21:39;8.90;99.90
20712;DHT22;10517;50.742;4.224;2023-03-11T17:24:05;8.80;99.90
20712;DHT22;10517;50.742;4.224;2023-03-11T17:26:31;8.60;99.90
20712;DHT22;10517;50.742;4.224;2023-03-11T17:28:57;8.40;99.90
20712;DHT22;10517;50.742;4.224;2023-03-11T17:31:23;8.30;99.90
20712;DHT22;10517;50.742;4.224;2023-03-11T17:33:48;8.10;99.90
20712;DHT22;10517;50.742;4.224;2023-03-11T17:36:15;8.00;99.90
20712;DHT22;10517;50.742;4.224;2023-03-11T17:38:43;7.70;99.90
20712;DHT22;10517;50.742;4.224;2023-03-11T17:41:13;7.50;99.90
20712;DHT22;10517;50.742;4.224;2023-03-11T17:43:39;7.40;99.90